Observation data for Hereford on 10/18/2019      Previous  Date       Current Mesonet Observations  Soil Data  Daily Summary Page  Observations in Plain Language
KHES 180500Z 18009KT 13/03 A2984 RMK A01 T01330029  RH  050%=      5-min Rain = 0
KHES 180505Z 18009KT 13/03 A2984 RMK A01 T01310029  RH  051%=      5-min Rain = 0
KHES 180510Z 18009KT 13/03 A2983 RMK A01 T01290028  RH  051%=      5-min Rain = 0
KHES 180515Z 18008KT 13/03 A2983 RMK A01 T01270028  RH  052%=      5-min Rain = 0
KHES 180520Z 18008KT 13/03 A2983 RMK A01 T01250028  RH  053%=      5-min Rain = 0
KHES 180525Z 18008KT 12/03 A2983 RMK A01 T01240028  RH  053%=      5-min Rain = 0
KHES 180530Z 18008KT 13/03 A2983 RMK A01 T01260027  RH  052%=      5-min Rain = 0
KHES 180535Z 19008KT 13/03 A2983 RMK A01 T01260027  RH  052%=      5-min Rain = 0
KHES 180540Z 19008KT 13/03 A2983 RMK A01 T01270028  RH  052%=      5-min Rain = 0
KHES 180545Z 19008KT 13/03 A2983 RMK A01 T01280028  RH  051%=      5-min Rain = 0
KHES 180550Z 19009KT 13/03 A2983 RMK A01 T01280028  RH  051%=      5-min Rain = 0
KHES 180555Z 18008KT 13/03 A2983 RMK A01 T01270028  RH  052%=      5-min Rain = 0
KHES 180600Z 18008KT 13/03 A2983 RMK A01 T01250029  RH  053%=      5-min Rain = 0
KHES 180605Z 18007KT 12/03 A2983 RMK A01 T01230029  RH  054%=      5-min Rain = 0
KHES 180610Z 18008KT 12/03 A2982 RMK A01 T01220030  RH  054%=      5-min Rain = 0
KHES 180615Z 18009KT 12/03 A2982 RMK A01 T01240030  RH  054%=      5-min Rain = 0
KHES 180620Z 19009KT 13/03 A2982 RMK A01 T01250031  RH  053%=      5-min Rain = 0
KHES 180625Z 18009KT 13/03 A2982 RMK A01 T01260031  RH  053%=      5-min Rain = 0
KHES 180630Z 18009KT 13/03 A2982 RMK A01 T01260032  RH  054%=      5-min Rain = 0
KHES 180635Z 18009KT 13/03 A2982 RMK A01 T01250032  RH  054%=      5-min Rain = 0
KHES 180640Z 16008KT 12/03 A2982 RMK A01 T01230032  RH  055%=      5-min Rain = 0
KHES 180645Z 17010KT 13/03 A2982 RMK A01 T01250032  RH  054%=      5-min Rain = 0
KHES 180650Z 17009KT 13/03 A2982 RMK A01 T01260032  RH  054%=      5-min Rain = 0
KHES 180655Z 16008KT 12/03 A2982 RMK A01 T01230032  RH  055%=      5-min Rain = 0
KHES 180700Z 16009KT 12/03 A2982 RMK A01 T01240032  RH  055%=      5-min Rain = 0
KHES 180705Z 16008KT 12/03 A2982 RMK A01 T01220033  RH  055%=      5-min Rain = 0
KHES 180710Z 17008KT 12/03 A2982 RMK A01 T01210033  RH  056%=      5-min Rain = 0
KHES 180715Z 17009KT 12/03 A2982 RMK A01 T01210033  RH  056%=      5-min Rain = 0
KHES 180720Z 17008KT 12/03 A2981 RMK A01 T01200034  RH  057%=      5-min Rain = 0
KHES 180725Z 17009KT 12/03 A2981 RMK A01 T01210034  RH  056%=      5-min Rain = 0
KHES 180730Z 18009KT 12/04 A2981 RMK A01 T01210035  RH  056%=      5-min Rain = 0
KHES 180735Z 18009KT 12/04 A2981 RMK A01 T01220036  RH  057%=      5-min Rain = 0
KHES 180740Z 17008KT 12/04 A2981 RMK A01 T01200037  RH  058%=      5-min Rain = 0
KHES 180745Z 17008KT 12/04 A2981 RMK A01 T01210038  RH  058%=      5-min Rain = 0
KHES 180750Z 18008KT 12/04 A2981 RMK A01 T01200039  RH  059%=      5-min Rain = 0
KHES 180755Z 18008KT 12/04 A2981 RMK A01 T01200040  RH  059%=      5-min Rain = 0
KHES 180800Z 19007KT 12/04 A2981 RMK A01 T01180040  RH  060%=      5-min Rain = 0
KHES 180805Z 19008KT 12/04 A2981 RMK A01 T01190041  RH  060%=      5-min Rain = 0
KHES 180810Z 18008KT 12/04 A2981 RMK A01 T01180041  RH  060%=      5-min Rain = 0
KHES 180815Z 18008KT 12/04 A2981 RMK A01 T01180041  RH  060%=      5-min Rain = 0
KHES 180820Z 19008KT 12/04 A2981 RMK A01 T01180042  RH  061%=      5-min Rain = 0
KHES 180825Z 18010KT 12/04 A2981 RMK A01 T01170042  RH  061%=      5-min Rain = 0
KHES 180830Z 19008G13KT 12/04 A2981 RMK A01 T01150042  RH  062%=      5-min Rain = 0
KHES 180835Z 20007KT 12/04 A2981 RMK A01 T01160042  RH  062%=      5-min Rain = 0
KHES 180840Z 18007KT 11/04 A2981 RMK A01 T01120043  RH  064%=      5-min Rain = 0
KHES 180845Z 18007KT 11/04 A2981 RMK A01 T01110043  RH  064%=      5-min Rain = 0
KHES 180850Z 18007KT 11/04 A2981 RMK A01 T01090044  RH  065%=      5-min Rain = 0
KHES 180855Z 18008KT 11/05 A298 RMK A01 T01100045  RH  065%=      5-min Rain = 0
KHES 180900Z 19009KT 11/05 A298 RMK A01 T01090045  RH  066%=      5-min Rain = 0
KHES 180905Z 18008KT 11/05 A298 RMK A01 T01100046  RH  066%=      5-min Rain = 0
KHES 180910Z 18009KT 11/05 A298 RMK A01 T01100047  RH  067%=      5-min Rain = 0
KHES 180915Z 18008KT 11/05 A2979 RMK A01 T01090048  RH  067%=      5-min Rain = 0
KHES 180920Z 18008KT 11/05 A2979 RMK A01 T01080049  RH  068%=      5-min Rain = 0
KHES 180925Z 18008KT 11/05 A2979 RMK A01 T01080050  RH  069%=      5-min Rain = 0
KHES 180930Z 18008KT 11/05 A2979 RMK A01 T01070051  RH  070%=      5-min Rain = 0
KHES 180935Z 18009KT 11/05 A2979 RMK A01 T01080052  RH  070%=      5-min Rain = 0
KHES 180940Z 19009KT 11/05 A2978 RMK A01 T01100053  RH  070%=      5-min Rain = 0
KHES 180945Z 19010KT 11/05 A2979 RMK A01 T01100054  RH  070%=      5-min Rain = 0
KHES 180950Z 19011KT 11/06 A2978 RMK A01 T01120055  RH  070%=      5-min Rain = 0
KHES 180955Z 19011G16KT 11/06 A2978 RMK A01 T01140056  RH  069%=      5-min Rain = 0
KHES 181000Z 19010G17KT 12/06 A2978 RMK A01 T01150058  RH  070%=      5-min Rain = 0
KHES 181005Z 20010G16KT 12/06 A2979 RMK A01 T01160058  RH  070%=      5-min Rain = 0
KHES 181010Z 20012KT 12/06 A2979 RMK A01 T01170060  RH  070%=      5-min Rain = 0
KHES 181015Z 20011G17KT 12/06 A2978 RMK A01 T01180060  RH  069%=      5-min Rain = 0
KHES 181020Z 20010KT 12/06 A2978 RMK A01 T01180061  RH  070%=      5-min Rain = 0
KHES 181025Z 20011G16KT 12/06 A2978 RMK A01 T01190062  RH  070%=      5-min Rain = 0
KHES 181030Z 20010KT 12/06 A2978 RMK A01 T01180062  RH  070%=      5-min Rain = 0
KHES 181035Z 20010G16KT 12/06 A2978 RMK A01 T01180063  RH  071%=      5-min Rain = 0
KHES 181040Z 20009G14KT 12/06 A2978 RMK A01 T01170063  RH  071%=      5-min Rain = 0
KHES 181045Z 20009KT 12/06 A2978 RMK A01 T01160063  RH  072%=      5-min Rain = 0
KHES 181050Z 20011KT 12/06 A2978 RMK A01 T01150063  RH  072%=      5-min Rain = 0
KHES 181055Z 20010KT 12/06 A2978 RMK A01 T01150063  RH  072%=      5-min Rain = 0
KHES 181100Z 20010KT 11/06 A2978 RMK A01 T01130063  RH  073%=      5-min Rain = 0
KHES 181105Z 20010KT 11/06 A2978 RMK A01 T01120063  RH  074%=      5-min Rain = 0
KHES 181110Z 20010KT 11/06 A2978 RMK A01 T01100063  RH  075%=      5-min Rain = 0
KHES 181115Z 20010KT 11/06 A2978 RMK A01 T01100063  RH  075%=      5-min Rain = 0
KHES 181120Z 20011G16KT 11/06 A2978 RMK A01 T01100063  RH  075%=      5-min Rain = 0
KHES 181125Z 20011KT 11/06 A2978 RMK A01 T01080063  RH  075%=      5-min Rain = 0
KHES 181130Z 19011KT 11/06 A2978 RMK A01 T01080064  RH  076%=      5-min Rain = 0
KHES 181135Z 19011KT 11/06 A2978 RMK A01 T01080064  RH  076%=      5-min Rain = 0
KHES 181140Z 19009KT 11/07 A2978 RMK A01 T01070065  RH  077%=      5-min Rain = 0
KHES 181145Z 19009KT 11/07 A2979 RMK A01 T01070065  RH  077%=      5-min Rain = 0
KHES 181150Z 19008KT 11/07 A2979 RMK A01 T01060065  RH  078%=      5-min Rain = 0
KHES 181155Z 20006KT 10/07 A2979 RMK A01 T01040065  RH  079%=      5-min Rain = 0
KHES 181200Z 20007KT 10/07 A2979 RMK A01 T01040066  RH  079%=      5-min Rain = 0
KHES 181205Z 20008KT 11/07 A2979 RMK A01 T01050067  RH  079%=      5-min Rain = 0
KHES 181210Z 20008KT 11/07 A2979 RMK A01 T01050067  RH  080%=      5-min Rain = 0
KHES 181215Z 20008KT 11/07 A2979 RMK A01 T01050068  RH  080%=      5-min Rain = 0
KHES 181220Z 20008KT 11/07 A2979 RMK A01 T01050069  RH  080%=      5-min Rain = 0
KHES 181225Z 20009KT 11/07 A2979 RMK A01 T01050069  RH  081%=      5-min Rain = 0
KHES 181230Z 20010KT 11/07 A2979 RMK A01 T01050070  RH  081%=      5-min Rain = 0
KHES 181235Z 21009KT 11/07 A2979 RMK A01 T01060071  RH  081%=      5-min Rain = 0
KHES 181240Z 21006KT 10/07 A2979 RMK A01 T01040070  RH  081%=      5-min Rain = 0
KHES 181245Z 21007KT 10/07 A2979 RMK A01 T01020070  RH  083%=      5-min Rain = 0
KHES 181250Z 21008KT 10/07 A2979 RMK A01 T01040072  RH  083%=      5-min Rain = 0
KHES 181255Z 20008KT 10/07 A2979 RMK A01 T01040072  RH  083%=      5-min Rain = 0
KHES 181300Z 20008KT 10/07 A2979 RMK A01 T01030073  RH  083%=      5-min Rain = 0
KHES 181305Z 19008KT 10/07 A2979 RMK A01 T01040074  RH  084%=      5-min Rain = 0
KHES 181310Z 19009KT 11/07 A2978 RMK A01 T01060074  RH  083%=      5-min Rain = 0
KHES 181315Z 19009KT 11/08 A2978 RMK A01 T01050075  RH  083%=      5-min Rain = 0
KHES 181320Z 19007KT 10/07 A2978 RMK A01 T01040074  RH  084%=      5-min Rain = 0
KHES 181325Z 19008KT 11/08 A2978 RMK A01 T01050075  RH  084%=      5-min Rain = 0
KHES 181330Z 19008KT 11/08 A2978 RMK A01 T01060076  RH  084%=      5-min Rain = 0
KHES 181335Z 19008KT 11/08 A2978 RMK A01 T01080077  RH  083%=      5-min Rain = 0
KHES 181340Z 19008KT 11/08 A2978 RMK A01 T01090078  RH  083%=      5-min Rain = 0
KHES 181345Z 19008KT 11/08 A2978 RMK A01 T01110079  RH  083%=      5-min Rain = 0
KHES 181350Z 19008KT 11/08 A2978 RMK A01 T01130080  RH  083%=      5-min Rain = 0
KHES 181355Z 19008KT 12/08 A2978 RMK A01 T01150082  RH  082%=      5-min Rain = 0
KHES 181400Z 19008KT 12/08 A2978 RMK A01 T01180083  RH  082%=      5-min Rain = 0
KHES 181405Z 19007KT 12/09 A2978 RMK A01 T01210085  RH  081%=      5-min Rain = 0
KHES 181410Z 20008KT 13/09 A2978 RMK A01 T01250087  RH  080%=      5-min Rain = 0
KHES 181415Z 20008KT 13/09 A2978 RMK A01 T01280087  RH  079%=      5-min Rain = 0
KHES 181420Z 20007KT 13/09 A2978 RMK A01 T01320089  RH  078%=      5-min Rain = 0
KHES 181425Z 20007KT 14/09 A2978 RMK A01 T01360091  RH  076%=      5-min Rain = 0
KHES 181430Z 20009KT 14/09 A2978 RMK A01 T01390091  RH  075%=      5-min Rain = 0
KHES 181435Z 20009KT 14/09 A2978 RMK A01 T01400091  RH  074%=      5-min Rain = 0
KHES 181440Z 20009KT 14/09 A2978 RMK A01 T01440092  RH  073%=      5-min Rain = 0
KHES 181445Z 20011KT 15/09 A2978 RMK A01 T01470093  RH  072%=      5-min Rain = 0
KHES 181450Z 20011KT 15/09 A2978 RMK A01 T01500093  RH  071%=      5-min Rain = 0
KHES 181455Z 21010KT 16/09 A2978 RMK A01 T01550094  RH  069%=      5-min Rain = 0
KHES 181500Z 21011KT 16/09 A2978 RMK A01 T01590094  RH  067%=      5-min Rain = 0
KHES 181505Z 21010KT 16/10 A2978 RMK A01 T01600095  RH  067%=      5-min Rain = 0
KHES 181510Z 21010KT 16/10 A2978 RMK A01 T01640096  RH  066%=      5-min Rain = 0
KHES 181515Z 21011KT 17/10 A2978 RMK A01 T01670097  RH  065%=      5-min Rain = 0
KHES 181520Z 21011KT 17/10 A2978 RMK A01 T01690097  RH  065%=      5-min Rain = 0
KHES 181525Z 22012KT 17/10 A2978 RMK A01 T01720097  RH  063%=      5-min Rain = 0
KHES 181530Z 21012KT 17/10 A2978 RMK A01 T01730098  RH  063%=      5-min Rain = 0
KHES 181535Z 21011KT 18/10 A2978 RMK A01 T01770100  RH  063%=      5-min Rain = 0
KHES 181540Z 21012G17KT 18/10 A2977 RMK A01 T01820100  RH  061%=      5-min Rain = 0
KHES 181545Z 22013KT 19/10 A2977 RMK A01 T01860100  RH  059%=      5-min Rain = 0
KHES 181550Z 22012G18KT 19/10 A2977 RMK A01 T01910101  RH  058%=      5-min Rain = 0
KHES 181555Z 23013KT 19/10 A2977 RMK A01 T01940101  RH  057%=      5-min Rain = 0
KHES 181600Z 23014KT 19/10 A2977 RMK A01 T01880097  RH  057%=      5-min Rain = 0
KHES 181605Z 23016KT 19/10 A2976 RMK A01 T01870096  RH  057%=      5-min Rain = 0
KHES 181610Z 23016KT 19/10 A2976 RMK A01 T01880096  RH  057%=      5-min Rain = 0
KHES 181615Z 23015KT 19/10 A2976 RMK A01 T01850096  RH  058%=      5-min Rain = 0
KHES 181620Z 22013KT 19/10 A2976 RMK A01 T01850097  RH  058%=      5-min Rain = 0
KHES 181625Z 22012KT 19/10 A2976 RMK A01 T01900099  RH  057%=      5-min Rain = 0
KHES 181630Z 22011KT 20/10 A2976 RMK A01 T01950101  RH  056%=      5-min Rain = 0
KHES 181635Z 22011KT 20/10 A2975 RMK A01 T01970102  RH  056%=      5-min Rain = 0
KHES 181640Z 22013KT 20/10 A2975 RMK A01 T01970100  RH  055%=      5-min Rain = 0
KHES 181645Z 23011G16KT 20/10 A2975 RMK A01 T02000100  RH  054%=      5-min Rain = 0
KHES 181650Z 22014KT 21/10 A2975 RMK A01 T02090102  RH  052%=      5-min Rain = 0
KHES 181655Z 23014G19KT 22/11 A2975 RMK A01 T02190105  RH  050%=      5-min Rain = 0
KHES 181700Z 23012G17KT 22/11 A2975 RMK A01 T02230106  RH  049%=      5-min Rain = 0
KHES 181705Z 23012KT 23/11 A2974 RMK A01 T02270108  RH  049%=      5-min Rain = 0
KHES 181710Z 23012KT 23/11 A2974 RMK A01 T02260107  RH  049%=      5-min Rain = 0
KHES 181715Z 23015KT 23/11 A2974 RMK A01 T02300106  RH  047%=      5-min Rain = 0
KHES 181720Z 23012G18KT 24/11 A2974 RMK A01 T02370108  RH  046%=      5-min Rain = 0
KHES 181725Z 24013G19KT 24/11 A2974 RMK A01 T02410106  RH  044%=      5-min Rain = 0
KHES 181730Z 24012G17KT 24/11 A2973 RMK A01 T02440106  RH  043%=      5-min Rain = 0
KHES 181735Z 25018G24KT 25/10 A2973 RMK A01 T02520100  RH  040%=      5-min Rain = 0
KHES 181740Z 25016KT 25/10 A2973 RMK A01 T02540100  RH  039%=      5-min Rain = 0
KHES 181745Z 25017G22KT 26/10 A2973 RMK A01 T02580099  RH  038%=      5-min Rain = 0
KHES 181750Z 26017G22KT 26/10 A2973 RMK A01 T02580098  RH  038%=      5-min Rain = 0
KHES 181755Z 26018KT 26/09 A2972 RMK A01 T02590094  RH  036%=      5-min Rain = 0
KHES 181800Z 25017KT 26/09 A2972 RMK A01 T02610094  RH  036%=      5-min Rain = 0
KHES 181805Z 25016KT 27/09 A2972 RMK A01 T02650091  RH  034%=      5-min Rain = 0
KHES 181810Z 25017G22KT 26/09 A2972 RMK A01 T02620089  RH  035%=      5-min Rain = 0
KHES 181815Z 27017KT 26/09 A2971 RMK A01 T02640088  RH  034%=      5-min Rain = 0
KHES 181820Z 26017G22KT 27/08 A2971 RMK A01 T02660084  RH  033%=      5-min Rain = 0
KHES 181825Z 25016G21KT 27/08 A2971 RMK A01 T02670078  RH  031%=      5-min Rain = 0
KHES 181830Z 26015KT 27/08 A2971 RMK A01 T02680079  RH  031%=      5-min Rain = 0
KHES 181835Z 26016KT 27/07 A2971 RMK A01 T02650074  RH  030%=      5-min Rain = 0
KHES 181840Z 26016G26KT 27/08 A297 RMK A01 T02680075  RH  030%=      5-min Rain = 0
KHES 181845Z 26016G21KT 27/08 A297 RMK A01 T02680076  RH  030%=      5-min Rain = 0
KHES 181850Z 26016G22KT 27/08 A297 RMK A01 T02660076  RH  031%=      5-min Rain = 0
KHES 181855Z 27015G21KT 27/08 A2969 RMK A01 T02680078  RH  031%=      5-min Rain = 0
KHES 181900Z 25016KT 27/07 A2969 RMK A01 T02690073  RH  030%=      5-min Rain = 0
KHES 181905Z 25016G22KT 27/07 A2969 RMK A01 T02690073  RH  029%=      5-min Rain = 0
KHES 181910Z 26017G23KT 27/07 A2968 RMK A01 T02720071  RH  029%=      5-min Rain = 0
KHES 181915Z 27015G21KT 27/07 A2968 RMK A01 T02690073  RH  030%=      5-min Rain = 0
KHES 181920Z 26015G21KT 27/08 A2968 RMK A01 T02720075  RH  030%=      5-min Rain = 0
KHES 181925Z 25017G23KT 27/07 A2968 RMK A01 T02720072  RH  029%=      5-min Rain = 0
KHES 181930Z 25019G25KT 27/07 A2968 RMK A01 T02700073  RH  030%=      5-min Rain = 0
KHES 181935Z 26014G23KT 27/08 A2967 RMK A01 T02710075  RH  030%=      5-min Rain = 0
KHES 181940Z 25018G25KT 27/07 A2967 RMK A01 T02710071  RH  029%=      5-min Rain = 0
KHES 181945Z 26019KT 27/07 A2967 RMK A01 T02730073  RH  029%=      5-min Rain = 0
KHES 181950Z 26014G20KT 27/07 A2967 RMK A01 T02710072  RH  029%=      5-min Rain = 0
KHES 181955Z 25017KT 27/07 A2967 RMK A01 T02690070  RH  029%=      5-min Rain = 0
KHES 182000Z 25018G26KT 27/07 A2967 RMK A01 T02720070  RH  028%=      5-min Rain = 0
KHES 182005Z 24016G25KT 27/07 A2966 RMK A01 T02710070  RH  029%=      5-min Rain = 0
KHES 182010Z 24018G24KT 27/07 A2966 RMK A01 T02700067  RH  028%=      5-min Rain = 0
KHES 182015Z 24017G24KT 27/07 A2966 RMK A01 T02710068  RH  028%=      5-min Rain = 0
KHES 182020Z 24014G23KT 27/07 A2966 RMK A01 T02700070  RH  029%=      5-min Rain = 0
KHES 182025Z 25018G23KT 27/07 A2966 RMK A01 T02710069  RH  029%=      5-min Rain = 0
KHES 182030Z 24015KT 27/07 A2966 RMK A01 T02720072  RH  029%=      5-min Rain = 0
KHES 182035Z 24016KT 27/07 A2965 RMK A01 T02740070  RH  028%=      5-min Rain = 0
KHES 182040Z 22016G22KT 28/07 A2965 RMK A01 T02760070  RH  028%=      5-min Rain = 0
KHES 182045Z 24017G23KT 28/07 A2965 RMK A01 T02760071  RH  028%=      5-min Rain = 0
KHES 182050Z 25015G20KT 27/06 A2965 RMK A01 T02670064  RH  028%=      5-min Rain = 0
KHES 182055Z 26015G20KT 27/07 A2965 RMK A01 T02680065  RH  028%=      5-min Rain = 0
KHES 182100Z 25016G25KT 27/07 A2965 RMK A01 T02690066  RH  028%=      5-min Rain = 0
KHES 182105Z 22015G20KT 26/06 A2965 RMK A01 T02580064  RH  030%=      5-min Rain = 0
KHES 182110Z 24013KT 27/06 A2965 RMK A01 T02660064  RH  028%=      5-min Rain = 0
KHES 182115Z 24015KT 27/06 A2965 RMK A01 T02650060  RH  028%=      5-min Rain = 0
KHES 182120Z 25015KT 27/06 A2965 RMK A01 T02700063  RH  027%=      5-min Rain = 0
KHES 182125Z 25015G21KT 27/06 A2965 RMK A01 T02690062  RH  027%=      5-min Rain = 0
KHES 182130Z 25016G21KT 26/06 A2965 RMK A01 T02630059  RH  028%=      5-min Rain = 0
KHES 182135Z 25015KT 26/06 A2965 RMK A01 T02610062  RH  029%=      5-min Rain = 0
KHES 182140Z 24014G19KT 26/07 A2965 RMK A01 T02580066  RH  030%=      5-min Rain = 0
KHES 182145Z 24015G20KT 26/07 A2965 RMK A01 T02570068  RH  031%=      5-min Rain = 0
KHES 182150Z 25017G22KT 25/09 A2966 RMK A01 T02500087  RH  037%=      5-min Rain = 0
KHES 182155Z 24013KT 25/10 A2965 RMK A01 T02460098  RH  040%=      5-min Rain = 0
KHES 182200Z 24012G17KT 25/09 A2965 RMK A01 T02530086  RH  036%=      5-min Rain = 0
KHES 182205Z 24011G16KT 26/09 A2965 RMK A01 T02590092  RH  036%=      5-min Rain = 0
KHES 182210Z 23014G19KT 26/08 A2965 RMK A01 T02600083  RH  033%=      5-min Rain = 0
KHES 182215Z 25015KT 26/07 A2965 RMK A01 T02610072  RH  031%=      5-min Rain = 0
KHES 182220Z 24014KT 26/07 A2965 RMK A01 T02620066  RH  029%=      5-min Rain = 0
KHES 182225Z 24015G20KT 26/06 A2965 RMK A01 T02600061  RH  029%=      5-min Rain = 0
KHES 182230Z 25019G27KT 25/05 A2965 RMK A01 T02530052  RH  028%=      5-min Rain = 0
KHES 182235Z 25021G26KT 25/05 A2966 RMK A01 T02500045  RH  027%=      5-min Rain = 0
KHES 182240Z 25019G24KT 25/05 A2966 RMK A01 T02540050  RH  027%=      5-min Rain = 0
KHES 182245Z 25017G22KT 26/05 A2965 RMK A01 T02600052  RH  027%=      5-min Rain = 0
KHES 182250Z 24016KT 26/05 A2965 RMK A01 T02620052  RH  027%=      5-min Rain = 0
KHES 182255Z 24017KT 26/05 A2965 RMK A01 T02580046  RH  026%=      5-min Rain = 0
KHES 182300Z 24016KT 26/04 A2965 RMK A01 T02550040  RH  025%=      5-min Rain = 0
KHES 182305Z 24015KT 25/04 A2966 RMK A01 T02490039  RH  026%=      5-min Rain = 0
KHES 182310Z 23013KT 25/04 A2966 RMK A01 T02470042  RH  027%=      5-min Rain = 0
KHES 182315Z 23013KT 25/04 A2966 RMK A01 T02470043  RH  027%=      5-min Rain = 0
KHES 182320Z 23013KT 25/04 A2966 RMK A01 T02460043  RH  027%=      5-min Rain = 0
KHES 182325Z 23013KT 24/04 A2966 RMK A01 T02440044  RH  028%=      5-min Rain = 0
KHES 182330Z 23014KT 24/04 A2967 RMK A01 T02420044  RH  028%=      5-min Rain = 0
KHES 182335Z 23013KT 24/04 A2967 RMK A01 T02380044  RH  029%=      5-min Rain = 0
KHES 182340Z 23011KT 24/05 A2967 RMK A01 T02370046  RH  029%=      5-min Rain = 0
KHES 182345Z 23010KT 23/05 A2967 RMK A01 T02340047  RH  030%=      5-min Rain = 0
KHES 182350Z 23010KT 23/05 A2967 RMK A01 T02300047  RH  031%=      5-min Rain = 0
KHES 182355Z 23010KT 23/05 A2968 RMK A01 T02260048  RH  032%=      5-min Rain = 0
KHES 190000Z 23010KT 22/05 A2968 RMK A01 T02230048  RH  033%=      5-min Rain = 0
KHES 190005Z 23009KT 22/05 A2968 RMK A01 T02210046  RH  033%=      5-min Rain = 0
KHES 190010Z 22010KT 22/04 A2969 RMK A01 T02230038  RH  030%=      5-min Rain = 0
KHES 190015Z 22010KT 22/04 A2969 RMK A01 T02220037  RH  030%=      5-min Rain = 0
KHES 190020Z 22012KT 22/04 A2969 RMK A01 T02210038  RH  031%=      5-min Rain = 0
KHES 190025Z 22012G18KT 22/04 A2969 RMK A01 T02210041  RH  031%=      5-min Rain = 0
KHES 190030Z 22012KT 22/04 A2969 RMK A01 T02190044  RH  032%=      5-min Rain = 0
KHES 190035Z 22011KT 22/05 A297 RMK A01 T02180045  RH  033%=      5-min Rain = 0
KHES 190040Z 22012KT 22/05 A297 RMK A01 T02160046  RH  034%=      5-min Rain = 0
KHES 190045Z 23014KT 22/05 A297 RMK A01 T02150046  RH  034%=      5-min Rain = 0
KHES 190050Z 23015KT 22/04 A297 RMK A01 T02150043  RH  033%=      5-min Rain = 0
KHES 190055Z 23017G23KT 22/04 A297 RMK A01 T02160039  RH  032%=      5-min Rain = 0
KHES 190100Z 23018KT 22/04 A2971 RMK A01 T02160036  RH  031%=      5-min Rain = 0
KHES 190105Z 24018G23KT 22/03 A2971 RMK A01 T02150031  RH  030%=      5-min Rain = 0
KHES 190110Z 24017KT 21/03 A2971 RMK A01 T02140029  RH  030%=      5-min Rain = 0
KHES 190115Z 24014G19KT 21/03 A2971 RMK A01 T02100031  RH  031%=      5-min Rain = 0
KHES 190120Z 24014G19KT 21/03 A2971 RMK A01 T02090026  RH  030%=      5-min Rain = 0
KHES 190125Z 24013KT 21/03 A2971 RMK A01 T02060026  RH  031%=      5-min Rain = 0
KHES 190130Z 24010KT 20/02 A2972 RMK A01 T02040024  RH  031%=      5-min Rain = 0
KHES 190135Z 23010KT 20/03 A2972 RMK A01 T02010025  RH  031%=      5-min Rain = 0
KHES 190140Z 23009KT 20/03 A2972 RMK A01 T01970027  RH  033%=      5-min Rain = 0
KHES 190145Z 23008KT 20/03 A2972 RMK A01 T01960026  RH  033%=      5-min Rain = 0
KHES 190150Z 22007KT 19/03 A2972 RMK A01 T01930028  RH  034%=      5-min Rain = 0
KHES 190155Z 21007KT 19/03 A2972 RMK A01 T01890029  RH  035%=      5-min Rain = 0
KHES 190200Z 21008KT 19/03 A2973 RMK A01 T01880031  RH  036%=      5-min Rain = 0
KHES 190205Z 21007KT 19/03 A2973 RMK A01 T01850031  RH  036%=      5-min Rain = 0
KHES 190210Z 21008KT 18/03 A2973 RMK A01 T01830031  RH  037%=      5-min Rain = 0
KHES 190215Z 21008KT 18/03 A2973 RMK A01 T01810031  RH  037%=      5-min Rain = 0
KHES 190220Z 20007KT 18/03 A2973 RMK A01 T01780031  RH  038%=      5-min Rain = 0
KHES 190225Z 20007KT 18/03 A2972 RMK A01 T01770031  RH  038%=      5-min Rain = 0
KHES 190230Z 22007KT 18/03 A2972 RMK A01 T01770030  RH  038%=      5-min Rain = 0
KHES 190235Z 24008KT 18/03 A2973 RMK A01 T01750031  RH  039%=      5-min Rain = 0
KHES 190240Z 23008KT 17/03 A2973 RMK A01 T01700031  RH  040%=      5-min Rain = 0
KHES 190245Z 23009KT 17/03 A2973 RMK A01 T01700030  RH  040%=      5-min Rain = 0
KHES 190250Z 24009KT 17/03 A2973 RMK A01 T01690031  RH  041%=      5-min Rain = 0
KHES 190255Z 24009KT 17/03 A2973 RMK A01 T01650031  RH  041%=      5-min Rain = 0
KHES 190300Z 25009KT 16/03 A2973 RMK A01 T01640030  RH  041%=      5-min Rain = 0
KHES 190305Z 25009KT 16/03 A2974 RMK A01 T01620029  RH  042%=      5-min Rain = 0
KHES 190310Z 25009KT 16/03 A2974 RMK A01 T01610029  RH  042%=      5-min Rain = 0
KHES 190315Z 25009KT 16/03 A2974 RMK A01 T01580029  RH  043%=      5-min Rain = 0
KHES 190320Z 25009KT 16/03 A2974 RMK A01 T01570030  RH  043%=      5-min Rain = 0
KHES 190325Z 26010KT 16/03 A2975 RMK A01 T01560031  RH  044%=      5-min Rain = 0
KHES 190330Z 26009KT 15/03 A2975 RMK A01 T01520032  RH  045%=      5-min Rain = 0
KHES 190335Z 27010KT 15/03 A2975 RMK A01 T01480032  RH  047%=      5-min Rain = 0
KHES 190340Z 27009KT 15/03 A2975 RMK A01 T01450034  RH  048%=      5-min Rain = 0
KHES 190345Z 27009KT 14/03 A2975 RMK A01 T01400034  RH  050%=      5-min Rain = 0
KHES 190350Z 27010KT 14/04 A2975 RMK A01 T01380035  RH  051%=      5-min Rain = 0
KHES 190355Z 27009KT 14/03 A2976 RMK A01 T01360034  RH  051%=      5-min Rain = 0
KHES 190400Z 27010KT 13/03 A2976 RMK A01 T01330034  RH  052%=      5-min Rain = 0
KHES 190405Z 27010KT 13/03 A2976 RMK A01 T01320034  RH  052%=      5-min Rain = 0
KHES 190410Z 27011KT 13/03 A2976 RMK A01 T01340033  RH  051%=      5-min Rain = 0
KHES 190415Z 27011KT 14/03 A2977 RMK A01 T01370032  RH  050%=      5-min Rain = 0
KHES 190420Z 27011KT 14/03 A2977 RMK A01 T01370031  RH  050%=      5-min Rain = 0
KHES 190425Z 27012KT 14/03 A2977 RMK A01 T01360031  RH  050%=      5-min Rain = 0
KHES 190430Z 27012KT 13/03 A2977 RMK A01 T01330031  RH  051%=      5-min Rain = 0
KHES 190435Z 27011KT 13/03 A2977 RMK A01 T01310031  RH  052%=      5-min Rain = 0
KHES 190440Z 27010KT 13/03 A2977 RMK A01 T01280031  RH  053%=      5-min Rain = 0
KHES 190445Z 27010KT 13/03 A2977 RMK A01 T01260032  RH  053%=      5-min Rain = 0
KHES 190450Z 27010KT 13/03 A2977 RMK A01 T01250032  RH  054%=      5-min Rain = 0
KHES 190455Z 27010KT 12/03 A2977 RMK A01 T01220032  RH  055%=      5-min Rain = 0

Page generated in 0.0275 seconds.